KBTV/BTV METAR and TAF weather

Enter ICAO airport designator
Station Type Date Time Source
KBTV METAR 2020/06/02 15:54 UTC NOAA

KBTV 021554Z VRB03KT 10SM FEW065 BKN085 14/07 A2994 RMK AO2 SLP142 T01440072


Station Type Date Time Source
KBTV Decoded METAR 2020/06/02 15:54 UTC NOAA

BURLINGTON INTERNATIONAL, VT, United States (KBTV) 44-28N 73-09W 105M
Jun 02, 2020 - 11:54 AM EDT / 2020.06.02 1554 UTC
Wind: Variable at 3 MPH (3 KT):0
Visibility: 10 mile(s):0
Sky conditions: mostly cloudy
Temperature: 57.9 F (14.4 C)
Dew Point: 45.0 F (7.2 C)
Relative Humidity: 61%
Pressure (altimeter): 29.94 in. Hg (1013 hPa)
ob: KBTV 021554Z VRB03KT 10SM FEW065 BKN085 14/07 A2994 RMK AO2 SLP142 T01440072
cycle: 16

Station Type Date Time Source
KBTV TAF 2020/06/02 12:27 UTC NOAA

TAF KBTV 021125Z 0212/0312 16003KT P6SM VCSH BKN080
FM021800 19007KT P6SM VCSH BKN050
FM030300 17004KT P6SM BKN035
FM030700 17004KT P6SM VCSH BKN025

Example: see airport list